createdAt,value
2019-04-11T00:00:46.004Z,28.12
2019-04-11T00:03:21.625Z,27.58
2019-04-11T00:05:56.197Z,28.83
2019-04-11T00:08:30.437Z,24.80
2019-04-11T00:11:05.845Z,29.85
2019-04-11T00:13:41.135Z,28.80
2019-04-11T00:16:15.288Z,27.13
2019-04-11T00:18:49.839Z,30.65
2019-04-11T00:21:25.687Z,31.00
2019-04-11T00:24:00.667Z,27.75
2019-04-11T00:26:36.088Z,28.87
2019-04-11T00:29:10.469Z,30.88
2019-04-11T00:31:45.181Z,27.30
2019-04-11T00:34:20.723Z,31.57
2019-04-11T00:36:55.068Z,28.30
2019-04-11T00:39:29.939Z,35.95
2019-04-11T00:42:04.083Z,28.67
2019-04-11T00:44:38.957Z,31.62
2019-04-11T00:47:13.357Z,42.25
2019-04-11T00:49:48.470Z,30.57
2019-04-11T00:52:23.384Z,29.35
2019-04-11T00:54:57.552Z,30.88
2019-04-11T00:57:32.750Z,33.48
2019-04-11T01:00:07.399Z,34.05
2019-04-11T01:02:43.266Z,30.15
2019-04-11T01:05:18.755Z,37.95
2019-04-11T01:07:53.400Z,54.35
2019-04-11T01:10:27.617Z,39.95
2019-04-11T01:13:01.782Z,43.23
2019-04-11T01:15:36.970Z,36.73
2019-04-11T01:18:12.246Z,35.08
2019-04-11T01:20:46.603Z,37.83
2019-04-11T01:23:20.863Z,38.15
2019-04-11T01:25:57.032Z,56.35
2019-04-11T01:28:31.369Z,53.68
2019-04-11T01:31:09.473Z,51.33
2019-04-11T01:33:44.289Z,63.45
2019-04-11T01:36:20.438Z,51.02
2019-04-11T01:38:57.236Z,49.50
2019-04-11T01:41:31.305Z,53.13
2019-04-11T01:44:07.103Z,45.08
2019-04-11T01:46:40.602Z,45.95
2019-04-11T01:49:18.412Z,45.67
2019-04-11T01:51:52.207Z,43.52
2019-04-11T01:54:26.465Z,45.28
2019-04-11T01:57:01.362Z,46.88
2019-04-11T01:59:35.665Z,49.73
2019-04-11T02:02:42.268Z,48.33
2019-04-11T02:05:25.262Z,46.30
2019-04-11T02:07:59.478Z,44.00
2019-04-11T02:10:35.034Z,46.15
2019-04-11T02:13:09.921Z,46.23
2019-04-11T02:15:44.233Z,44.30
2019-04-11T02:18:19.360Z,44.90
2019-04-11T02:20:54.346Z,49.08
2019-04-11T02:23:46.237Z,49.35
2019-04-11T02:26:25.231Z,51.88
2019-04-11T02:28:59.436Z,46.33
2019-04-11T02:31:34.946Z,47.38
2019-04-11T02:34:11.389Z,49.70
2019-04-11T02:36:46.585Z,45.40
2019-04-11T02:39:22.556Z,50.83
2019-04-11T02:41:57.028Z,53.00
2019-04-11T02:44:46.161Z,48.17
2019-04-11T02:47:13.653Z,66.15
2019-04-11T02:49:45.530Z,73.65
2019-04-11T02:52:20.344Z,78.97
2019-04-11T02:54:54.665Z,74.60
2019-04-11T02:57:29.919Z,80.47
2019-04-11T03:00:06.792Z,80.72
2019-04-11T03:02:42.517Z,78.95
2019-04-11T03:05:18.441Z,72.27
2019-04-11T03:07:54.094Z,70.50
2019-04-11T03:10:29.026Z,75.47
2019-04-11T03:13:04.585Z,75.22
2019-04-11T03:15:57.559Z,76.42
2019-04-11T03:18:35.716Z,74.77
2019-04-11T03:20:56.795Z,67.87
2019-04-11T03:23:28.563Z,86.92
2019-04-11T03:26:05.287Z,72.60
2019-04-11T03:28:42.535Z,78.15
2019-04-11T03:31:50.573Z,70.78
2019-04-11T03:39:28.135Z,73.02
2019-04-11T03:41:59.869Z,75.17
2019-04-11T03:44:25.402Z,81.70
2019-04-11T03:47:11.320Z,89.10
2019-04-11T03:49:43.373Z,83.12
2019-04-11T03:52:10.631Z,81.78
2019-04-11T03:54:47.385Z,90.50
2019-04-11T03:57:23.621Z,100.30
2019-04-11T03:59:58.851Z,91.85
2019-04-11T04:02:34.877Z,96.70
2019-04-11T04:05:10.646Z,91.92
2019-04-11T04:07:46.551Z,91.15
2019-04-11T04:10:23.618Z,98.27
2019-04-11T04:12:59.887Z,92.10
2019-04-11T04:16:08.194Z,94.83
2019-04-11T04:18:43.730Z,94.52
2019-04-11T04:21:33.238Z,91.42
2019-04-11T04:24:28.787Z,99.90
2019-04-11T04:27:04.513Z,100.00
2019-04-11T04:29:41.351Z,94.20
2019-04-11T04:32:16.450Z,91.95
2019-04-11T04:34:53.130Z,106.97
2019-04-11T04:37:27.412Z,115.50
2019-04-11T04:40:21.669Z,111.15
2019-04-11T04:42:46.072Z,105.12
2019-04-11T04:45:16.233Z,97.30
2019-04-11T04:47:57.035Z,97.65
2019-04-11T04:50:28.713Z,111.35
2019-04-11T04:53:05.135Z,107.92
2019-04-11T04:55:41.218Z,99.70
2019-04-11T04:58:17.831Z,322.65
2019-04-11T05:00:53.854Z,231.25
2019-04-11T05:03:27.547Z,230.85
2019-04-11T05:06:03.872Z,232.35
2019-04-11T05:08:39.051Z,229.28
2019-04-11T05:11:13.978Z,189.13
2019-04-11T05:13:51.164Z,199.40
2019-04-11T05:16:24.279Z,169.95
2019-04-11T05:18:59.452Z,175.68
2019-04-11T05:21:33.749Z,176.72
2019-04-11T05:24:07.784Z,168.05
2019-04-11T05:26:41.834Z,142.18
2019-04-11T05:29:17.439Z,138.15
2019-04-11T05:31:51.802Z,138.60
2019-04-11T05:34:25.930Z,129.23
2019-04-11T05:37:00.296Z,126.75
2019-04-11T05:39:34.431Z,114.55
2019-04-11T05:42:09.173Z,106.35
2019-04-11T05:44:43.354Z,104.27
2019-04-11T05:47:18.883Z,98.42
2019-04-11T05:50:09.235Z,95.83
2019-04-11T05:52:42.539Z,108.65
2019-04-11T05:55:17.667Z,99.28
2019-04-11T05:57:52.318Z,87.50
2019-04-11T06:00:48.906Z,89.17
2019-04-11T06:03:23.955Z,76.57
2019-04-11T06:06:36.946Z,88.87
2019-04-11T06:09:16.474Z,81.15
2019-04-11T06:12:09.418Z,74.87
2019-04-11T06:14:52.024Z,66.92
2019-04-11T06:17:26.570Z,67.65
2019-04-11T06:20:17.784Z,65.08
2019-04-11T06:23:05.039Z,75.08
2019-04-11T06:26:02.142Z,67.05
2019-04-11T06:28:36.742Z,81.42
2019-04-11T06:31:28.213Z,83.30
2019-04-11T06:34:05.510Z,97.60
2019-04-11T06:36:57.192Z,110.12
2019-04-11T06:39:46.056Z,99.92
2019-04-11T06:42:30.280Z,94.28
2019-04-11T06:45:21.713Z,97.02
2019-04-11T06:48:13.572Z,87.10
2019-04-11T06:51:11.583Z,89.70
2019-04-11T06:53:54.642Z,92.02
2019-04-11T06:56:50.881Z,92.40
2019-04-11T06:59:34.375Z,103.35
2019-04-11T07:02:17.983Z,77.35
2019-04-11T07:05:04.717Z,80.70
2019-04-11T07:07:39.255Z,86.15
2019-04-11T07:10:26.569Z,84.20
2019-04-11T07:13:08.333Z,73.30
2019-04-11T07:15:48.501Z,61.88
2019-04-11T07:18:40.200Z,64.45
2019-04-11T07:21:14.996Z,59.75
2019-04-11T07:24:07.492Z,58.85
2019-04-11T07:26:45.864Z,62.93
2019-04-11T07:29:44.836Z,61.80
2019-04-11T07:32:20.292Z,58.17
2019-04-11T07:35:12.868Z,53.17
2019-04-11T07:37:49.349Z,53.50
2019-04-11T07:40:51.916Z,47.73
2019-04-11T07:43:33.413Z,52.17
2019-04-11T07:46:27.448Z,66.65
2019-04-11T07:49:08.148Z,68.78
2019-04-11T07:51:56.642Z,66.95
2019-04-11T07:54:30.794Z,58.78
2019-04-11T07:57:17.796Z,61.73
2019-04-11T08:00:09.733Z,61.95
2019-04-11T08:03:09.964Z,63.42
2019-04-11T08:06:22.282Z,53.48
2019-04-11T08:09:15.293Z,50.33
2019-04-11T08:11:56.944Z,54.25
2019-04-11T08:14:48.866Z,65.50
2019-04-11T08:17:36.860Z,58.15
2019-04-11T08:20:23.431Z,61.15
2019-04-11T08:23:00.739Z,60.17
2019-04-11T08:25:53.755Z,56.45
2019-04-11T08:28:28.961Z,49.75
2019-04-11T08:31:15.145Z,61.00
2019-04-11T08:33:50.963Z,54.45
2019-04-11T08:37:02.970Z,50.60
2019-04-11T08:39:45.087Z,50.60
2019-04-11T08:42:37.817Z,47.75
2019-04-11T08:45:14.640Z,42.58
2019-04-11T08:47:54.604Z,36.28
2019-04-11T08:50:31.728Z,45.70
2019-04-11T08:53:30.918Z,40.67
2019-04-11T08:56:05.641Z,48.65
2019-04-11T08:58:57.414Z,40.33
2019-04-11T09:01:32.018Z,39.57
2019-04-11T09:04:23.971Z,39.55
2019-04-11T09:06:58.602Z,39.15
2019-04-11T09:10:11.523Z,35.35
2019-04-11T09:12:55.055Z,41.90
2019-04-11T09:15:46.888Z,36.95
2019-04-11T09:18:21.834Z,33.30
2019-04-11T09:21:13.610Z,34.13
2019-04-11T09:23:48.339Z,35.80
2019-04-11T09:26:41.089Z,30.97
2019-04-11T09:29:15.948Z,30.65
2019-04-11T09:32:18.202Z,44.42
2019-04-11T09:34:59.805Z,31.00
2019-04-11T09:37:37.807Z,39.00
2019-04-11T09:40:31.966Z,34.73
2019-04-11T09:43:18.006Z,34.35
2019-04-11T09:46:10.265Z,35.08
2019-04-11T09:49:12.366Z,34.67
2019-04-11T09:52:17.799Z,29.87
2019-04-11T09:54:59.002Z,34.95
2019-04-11T09:57:36.708Z,34.50
2019-04-11T10:00:22.740Z,31.65
2019-04-11T10:03:00.743Z,33.05
2019-04-11T10:05:46.952Z,28.05
2019-04-11T10:08:43.700Z,26.55
2019-04-11T10:11:55.202Z,26.37
2019-04-11T10:14:31.598Z,28.38
2019-04-11T10:17:43.364Z,25.43
2019-04-11T10:20:18.876Z,25.82
2019-04-11T10:23:12.438Z,21.17
2019-04-11T10:26:05.450Z,29.07
2019-04-11T10:28:58.060Z,34.30
2019-04-11T10:31:34.715Z,27.98
2019-04-11T10:34:24.371Z,32.33
2019-04-11T10:37:09.589Z,29.70
2019-04-11T10:40:02.036Z,24.52
2019-04-11T10:42:36.837Z,26.50
2019-04-11T10:45:20.603Z,26.33
2019-04-11T10:48:01.230Z,27.37
2019-04-11T10:50:53.153Z,28.07
2019-04-11T10:53:28.173Z,24.47
2019-04-11T10:56:22.163Z,20.95
2019-04-11T10:58:59.443Z,21.45
2019-04-11T11:02:04.796Z,21.75
2019-04-11T11:04:48.838Z,18.98
2019-04-11T11:07:28.697Z,29.65
2019-04-11T11:10:09.234Z,21.60
2019-04-11T11:13:14.252Z,21.90
2019-04-11T11:15:52.868Z,25.55
2019-04-11T11:19:15.337Z,27.27
2019-04-11T11:21:29.744Z,22.25
2019-04-11T11:24:20.058Z,25.97
2019-04-11T11:26:57.925Z,22.20
2019-04-11T11:29:47.718Z,23.05
2019-04-11T11:32:31.585Z,22.17
2019-04-11T11:35:28.302Z,21.33
2019-04-11T11:38:07.851Z,21.85
2019-04-11T11:41:03.822Z,18.37
2019-04-11T11:43:39.091Z,20.12
2019-04-11T11:46:40.426Z,23.15
2019-04-11T11:49:36.267Z,19.12
2019-04-11T11:52:13.691Z,20.80
2019-04-11T11:54:53.651Z,18.67
2019-04-11T11:57:59.201Z,20.12
2019-04-11T12:00:34.746Z,17.92
2019-04-11T12:03:26.433Z,21.27
2019-04-11T12:06:05.378Z,20.17
2019-04-11T12:08:58.226Z,19.77
2019-04-11T12:14:27.479Z,22.60
2019-04-11T12:17:11.866Z,20.88
2019-04-11T12:20:16.394Z,24.57
2019-04-11T12:22:52.103Z,18.55
2019-04-11T12:25:33.495Z,18.12
2019-04-11T12:28:25.726Z,18.67
2019-04-11T12:31:07.146Z,22.27
2019-04-11T12:34:08.541Z,22.37
2019-04-11T12:36:50.137Z,17.57
2019-04-11T12:39:42.054Z,20.25
2019-04-11T12:42:22.264Z,17.55
2019-04-11T12:45:33.791Z,23.67
2019-04-11T12:48:11.918Z,21.05
2019-04-11T12:51:02.964Z,22.27
2019-04-11T12:53:36.937Z,21.85
2019-04-11T12:56:30.797Z,22.10
2019-04-11T12:59:17.363Z,21.35
2019-04-11T13:02:08.144Z,21.93
2019-04-11T13:04:46.725Z,24.67
2019-04-11T13:07:45.397Z,23.85
2019-04-11T13:10:24.207Z,22.87
2019-04-11T13:13:20.102Z,22.90
2019-04-11T13:16:22.838Z,22.58
2019-04-11T13:19:04.596Z,36.35
2019-04-11T13:21:46.136Z,44.85
2019-04-11T13:24:39.492Z,32.07
2019-04-11T13:27:32.546Z,41.75
2019-04-11T13:30:24.930Z,29.48
2019-04-11T13:33:01.012Z,33.95
2019-04-11T13:35:53.844Z,33.23
2019-04-11T13:38:37.516Z,31.70
2019-04-11T13:41:29.554Z,28.15
2019-04-11T13:44:21.960Z,36.85
2019-04-11T13:47:20.549Z,31.55
2019-04-11T13:50:00.664Z,29.10
2019-04-11T13:52:49.366Z,34.00
2019-04-11T13:55:28.344Z,37.98
2019-04-11T13:58:19.632Z,30.90
2019-04-11T14:01:01.742Z,33.23
2019-04-11T14:04:01.254Z,27.00
2019-04-11T14:06:37.128Z,38.60
2019-04-11T14:09:34.384Z,33.60
2019-04-11T14:12:12.710Z,30.17
2019-04-11T14:15:06.359Z,27.95
2019-04-11T14:17:51.417Z,25.23
2019-04-11T14:20:41.787Z,28.52
2019-04-11T14:23:34.141Z,28.77
2019-04-11T14:26:29.854Z,33.88
2019-04-11T14:29:32.279Z,35.30
2019-04-11T14:32:25.012Z,33.67
2019-04-11T14:35:16.142Z,37.73
2019-04-11T14:38:09.195Z,34.55
2019-04-11T14:41:01.827Z,33.00
2019-04-11T14:43:45.894Z,31.55
2019-04-11T14:46:38.080Z,35.05
2019-04-11T14:49:16.723Z,38.92
2019-04-11T14:52:08.639Z,35.78
2019-04-11T14:54:49.276Z,36.38
2019-04-11T14:57:31.572Z,34.18
2019-04-11T15:00:17.516Z,30.57
2019-04-11T15:03:04.164Z,27.90
2019-04-11T15:05:46.457Z,29.35
2019-04-11T15:08:38.766Z,33.23
2019-04-11T15:11:27.664Z,31.97
2019-04-11T15:14:12.675Z,30.70
2019-04-11T15:17:04.601Z,39.23
2019-04-11T15:19:38.728Z,35.63
2019-04-11T15:22:25.211Z,34.23
2019-04-11T15:25:07.811Z,38.17
2019-04-11T15:28:12.360Z,30.50
2019-04-11T15:30:48.222Z,34.75
2019-04-11T15:33:47.865Z,34.35
2019-04-11T15:36:22.501Z,30.77
2019-04-11T15:39:18.338Z,37.70
2019-04-11T15:42:01.445Z,42.08
2019-04-11T15:44:48.920Z,39.08
2019-04-11T15:47:23.208Z,38.00
2019-04-11T15:50:16.182Z,39.15
2019-04-11T15:52:55.239Z,41.28
2019-04-11T15:55:58.298Z,36.98
2019-04-11T15:58:42.442Z,35.85
2019-04-11T16:01:35.067Z,49.08
2019-04-11T16:04:22.802Z,68.97
2019-04-11T16:07:22.365Z,73.87
2019-04-11T16:09:56.953Z,69.53
2019-04-11T16:12:39.640Z,72.08
2019-04-11T16:15:16.120Z,76.90
2019-04-11T16:18:15.824Z,70.80
2019-04-11T16:20:51.820Z,58.55
2019-04-11T16:23:43.542Z,56.30
2019-04-11T16:26:22.195Z,57.60
2019-04-11T16:29:16.097Z,46.95
2019-04-11T16:31:50.387Z,44.88
2019-04-11T16:34:48.551Z,43.25
2019-04-11T16:37:19.329Z,40.12
2019-04-11T16:40:14.879Z,47.43
2019-04-11T16:42:53.879Z,45.83
2019-04-11T16:45:45.633Z,46.50
2019-04-11T16:48:19.547Z,39.35
2019-04-11T16:50:53.763Z,41.73
2019-04-11T16:53:27.994Z,36.48
2019-04-11T16:56:02.374Z,42.78
2019-04-11T16:58:36.384Z,45.65
2019-04-11T17:01:10.638Z,38.02
2019-04-11T17:03:44.845Z,36.20
2019-04-11T17:06:40.360Z,37.70
2019-04-11T17:09:26.621Z,34.90
2019-04-11T17:11:59.504Z,37.13
2019-04-11T17:14:33.810Z,28.92
2019-04-11T17:17:14.940Z,30.55
2019-04-11T17:19:44.028Z,39.00
2019-04-11T17:22:18.913Z,33.98
2019-04-11T17:24:53.588Z,30.80
2019-04-11T17:27:27.630Z,34.10
2019-04-11T17:30:01.890Z,33.73
2019-04-11T17:32:36.065Z,38.80
2019-04-11T17:35:10.287Z,38.60
2019-04-11T17:37:44.583Z,35.20
2019-04-11T17:40:18.683Z,33.48
2019-04-11T17:42:52.892Z,41.88
2019-04-11T17:45:27.173Z,37.10
2019-04-11T17:48:01.483Z,31.27
2019-04-11T17:50:35.845Z,36.98
2019-04-11T17:53:09.936Z,30.12
2019-04-11T17:55:44.051Z,32.23
2019-04-11T17:58:18.460Z,31.77
2019-04-11T18:01:00.510Z,31.33
2019-04-11T18:03:35.533Z,32.67
2019-04-11T18:06:10.624Z,39.80
2019-04-11T18:08:46.618Z,35.43
2019-04-11T18:11:20.785Z,42.98
2019-04-11T18:13:55.191Z,38.13
2019-04-11T18:16:31.680Z,39.75
2019-04-11T18:19:06.055Z,36.33
2019-04-11T18:21:40.872Z,48.68
2019-04-11T18:24:15.147Z,46.92
2019-04-11T18:26:51.761Z,41.00
2019-04-11T18:29:25.728Z,41.18
2019-04-11T18:32:00.071Z,48.35
2019-04-11T18:34:34.457Z,42.27
2019-04-11T18:37:09.004Z,43.50
2019-04-11T18:39:43.416Z,40.58
2019-04-11T18:42:17.732Z,39.70
2019-04-11T18:44:51.924Z,44.35
2019-04-11T18:47:27.205Z,42.60
2019-04-11T18:50:01.379Z,49.40
2019-04-11T18:52:36.804Z,66.77
2019-04-11T18:55:11.304Z,42.03
2019-04-11T18:57:45.688Z,38.63
2019-04-11T19:00:21.845Z,46.68
2019-04-11T19:02:56.314Z,47.62
2019-04-11T19:05:30.646Z,45.95
2019-04-11T19:08:04.939Z,45.05
2019-04-11T19:10:39.357Z,49.80
2019-04-11T19:13:16.696Z,46.40
2019-04-11T19:15:49.436Z,47.27
2019-04-11T19:18:23.883Z,43.40
2019-04-11T19:20:58.084Z,40.08
2019-04-11T19:23:32.296Z,41.25
2019-04-11T19:26:06.472Z,33.30
2019-04-11T19:28:40.736Z,33.38
2019-04-11T19:31:15.049Z,34.40
2019-04-11T19:33:48.910Z,36.33
2019-04-11T19:36:23.161Z,32.03
2019-04-11T19:38:57.153Z,32.30
2019-04-11T19:41:31.505Z,36.08
2019-04-11T19:44:06.021Z,39.90
2019-04-11T19:46:40.994Z,36.03
2019-04-11T19:49:15.098Z,37.08
2019-04-11T19:51:50.871Z,38.78
2019-04-11T19:54:26.068Z,35.08
2019-04-11T19:57:09.618Z,33.53
2019-04-11T19:59:43.785Z,38.35
2019-04-11T20:02:17.791Z,33.45
2019-04-11T20:04:51.797Z,33.58
2019-04-11T20:07:26.018Z,41.85
2019-04-11T20:10:00.899Z,35.98
2019-04-11T20:12:36.550Z,32.83
2019-04-11T20:15:10.651Z,35.98
2019-04-11T20:17:45.103Z,38.48
2019-04-11T20:20:19.379Z,38.73
2019-04-11T20:22:59.148Z,30.35
2019-04-11T20:25:29.463Z,38.65
2019-04-11T20:28:03.686Z,36.23
2019-04-11T20:30:37.876Z,42.25
2019-04-11T20:33:11.868Z,35.43
2019-04-11T20:35:46.206Z,33.88
2019-04-11T20:38:20.357Z,31.40
2019-04-11T20:40:54.309Z,37.15
2019-04-11T20:43:29.551Z,34.00
2019-04-11T20:46:05.233Z,39.10
2019-04-11T20:48:40.004Z,35.90
2019-04-11T20:51:14.442Z,33.98
2019-04-11T20:53:48.766Z,34.13
2019-04-11T20:56:24.487Z,35.83
2019-04-11T20:58:59.331Z,30.30
2019-04-11T21:01:33.467Z,30.72
2019-04-11T21:04:07.723Z,32.67
2019-04-11T21:06:42.012Z,30.95
2019-04-11T21:09:16.409Z,32.73
2019-04-11T21:11:50.712Z,34.03
2019-04-11T21:14:24.675Z,31.23
2019-04-11T21:16:58.885Z,33.25
2019-04-11T21:19:32.889Z,29.50
2019-04-11T21:22:07.190Z,30.80
2019-04-11T21:24:41.640Z,30.40
2019-04-11T21:27:15.592Z,39.03
2019-04-11T21:29:49.800Z,30.05
2019-04-11T21:32:23.854Z,32.85
2019-04-11T21:35:01.741Z,28.02
2019-04-11T21:37:36.639Z,33.33
2019-04-11T21:40:10.519Z,34.08
2019-04-11T21:42:44.805Z,29.67
2019-04-11T21:45:18.985Z,27.30
2019-04-11T21:47:59.470Z,30.80
2019-04-11T21:50:33.927Z,30.52
2019-04-11T21:53:08.247Z,27.50
2019-04-11T21:55:47.438Z,31.33
2019-04-11T21:58:20.111Z,33.90
2019-04-11T22:01:01.268Z,36.17
2019-04-11T22:03:36.920Z,35.13
2019-04-11T22:06:11.083Z,32.53
2019-04-11T22:08:45.547Z,27.35
2019-04-11T22:11:19.920Z,31.07
2019-04-11T22:13:54.154Z,31.62
2019-04-11T22:16:28.538Z,31.93
2019-04-11T22:19:03.122Z,28.10
2019-04-11T22:21:37.284Z,35.25
2019-04-11T22:24:11.628Z,31.33
2019-04-11T22:26:50.189Z,26.02
2019-04-11T22:29:24.847Z,27.67
2019-04-11T22:31:58.188Z,32.85
2019-04-11T22:34:44.092Z,30.25
2019-04-11T22:37:18.282Z,34.13
2019-04-11T22:39:52.445Z,29.65
2019-04-11T22:42:26.914Z,29.40
2019-04-11T22:45:01.101Z,30.00
2019-04-11T22:47:35.972Z,34.00
2019-04-11T22:50:11.413Z,33.40
2019-04-11T22:52:45.951Z,27.32
2019-04-11T22:55:20.336Z,28.90
2019-04-11T22:57:54.729Z,27.98
2019-04-11T23:00:28.825Z,28.67
2019-04-11T23:03:21.673Z,30.68
2019-04-11T23:08:28.490Z,29.20
2019-04-11T23:11:02.764Z,30.85
2019-04-11T23:13:37.095Z,27.98
2019-04-11T23:16:12.027Z,29.27
2019-04-11T23:18:47.076Z,29.10
2019-04-11T23:21:20.996Z,26.80
2019-04-11T23:23:55.125Z,27.87
2019-04-11T23:26:29.277Z,28.10
2019-04-11T23:29:03.213Z,29.45
2019-04-11T23:31:37.397Z,35.70
2019-04-11T23:34:11.922Z,25.25
2019-04-11T23:36:45.760Z,31.02
2019-04-11T23:39:22.668Z,27.55
2019-04-11T23:41:56.149Z,25.62
2019-04-11T23:44:30.499Z,28.45
2019-04-11T23:47:04.733Z,32.42
2019-04-11T23:49:39.031Z,25.85
2019-04-11T23:52:13.339Z,27.67
2019-04-11T23:54:47.721Z,28.75
2019-04-11T23:57:21.901Z,35.03
2019-04-11T23:59:56.217Z,34.25
